Time,TemperatureF,DewpointF,PressureIn,WindDirection,WindDirectionDegrees,WindSpeedMPH,WindSpeedGustMPH,Humidity,HourlyPrecipIn,Conditions,Clouds,dailyrainin,SoftwareType,DateUTC
2013-02-04 00:00:00,48.0,47.0,29.77,North,-999,-999.0,-999.0,95,-99.99,,,-99.99,,2013-02-04 00:00:00,
2013-02-04 00:41:00,48.0,47.0,29.77,North,-999,-999.0,-999.0,95,-99.99,,,-99.99,,2013-02-04 00:41:00,
2013-02-04 00:51:00,48.0,47.0,29.77,North,-999,-999.0,-999.0,95,-99.99,,,-99.99,,2013-02-04 00:51:00,
2013-02-04 01:00:00,49.0,48.0,29.76,North,-999,-999.0,-999.0,96,-99.99,,,-99.99,,2013-02-04 01:00:00,
2013-02-04 01:41:00,49.0,48.0,29.76,North,-999,-999.0,-999.0,96,-99.99,,,-99.99,,2013-02-04 01:41:00,
2013-02-04 01:51:00,49.0,48.0,29.76,North,-999,-999.0,-999.0,96,-99.99,,,-99.99,,2013-02-04 01:51:00,
2013-02-04 02:00:00,50.0,49.0,29.77,North,-999,-999.0,-999.0,94,-99.99,,,-99.99,,2013-02-04 02:00:00,
2013-02-04 02:41:00,50.0,49.0,29.77,North,-999,-999.0,-999.0,94,-99.99,,,-99.99,,2013-02-04 02:41:00,
2013-02-04 02:51:00,50.0,49.0,29.77,North,-999,-999.0,-999.0,94,-99.99,,,-99.99,,2013-02-04 02:51:00,
2013-02-04 03:00:00,49.0,37.0,29.81,North,-999,-999.0,-999.0,63,-99.99,,,-99.99,,2013-02-04 03:00:00,
2013-02-04 03:41:00,49.0,37.0,29.81,North,-999,-999.0,-999.0,63,-99.99,,,-99.99,,2013-02-04 03:41:00,
2013-02-04 03:51:00,49.0,37.0,29.81,North,-999,-999.0,-999.0,63,-99.99,,,-99.99,,2013-02-04 03:51:00,
2013-02-04 04:41:00,48.0,38.0,29.83,North,-999,-999.0,-999.0,70,-99.99,,,-99.99,,2013-02-04 04:41:00,
2013-02-04 04:52:00,48.0,38.0,29.83,North,-999,-999.0,-999.0,70,-99.99,,,-99.99,,2013-02-04 04:52:00,
2013-02-04 05:00:00,47.0,38.0,29.85,North,-999,-999.0,-999.0,71,-99.99,,,-99.99,,2013-02-04 05:00:00,
2013-02-04 05:41:00,47.0,38.0,29.85,North,-999,-999.0,-999.0,71,-99.99,,,-99.99,,2013-02-04 05:41:00,
2013-02-04 05:51:00,47.0,38.0,29.85,North,-999,-999.0,-999.0,71,-99.99,,,-99.99,,2013-02-04 05:51:00,
2013-02-04 06:00:00,46.0,38.0,29.90,North,-999,-999.0,-999.0,74,-99.99,,,-99.99,,2013-02-04 06:00:00,
2013-02-04 06:41:00,46.0,38.0,29.90,North,-999,-999.0,-999.0,74,-99.99,,,-99.99,,2013-02-04 06:41:00,
2013-02-04 06:51:00,46.0,38.0,29.90,North,-999,-999.0,-999.0,74,-99.99,,,-99.99,,2013-02-04 06:51:00,
2013-02-04 07:00:00,45.0,37.0,29.90,North,-999,-999.0,-999.0,72,-99.99,,,-99.99,,2013-02-04 07:00:00,
2013-02-04 07:41:00,45.0,37.0,29.90,North,-999,-999.0,-999.0,72,-99.99,,,-99.99,,2013-02-04 07:41:00,
2013-02-04 07:51:00,45.0,37.0,29.90,North,-999,-999.0,-999.0,72,-99.99,,,-99.99,,2013-02-04 07:51:00,
2013-02-04 08:00:00,45.0,37.0,29.91,North,-999,-999.0,-999.0,72,-99.99,,,-99.99,,2013-02-04 08:00:00,
2013-02-04 08:41:00,45.0,37.0,29.91,North,-999,-999.0,-999.0,72,-99.99,,,-99.99,,2013-02-04 08:41:00,
2013-02-04 08:52:00,45.0,37.0,29.91,North,-999,-999.0,-999.0,72,-99.99,,,-99.99,,2013-02-04 08:52:00,
2013-02-04 09:00:00,45.0,37.0,29.92,North,-999,-999.0,-999.0,73,-99.99,,,-99.99,,2013-02-04 09:00:00,
2013-02-04 09:41:00,45.0,37.0,29.92,North,-999,-999.0,-999.0,73,-99.99,,,-99.99,,2013-02-04 09:41:00,
2013-02-04 09:51:00,45.0,37.0,29.92,North,-999,-999.0,-999.0,73,-99.99,,,-99.99,,2013-02-04 09:51:00,
2013-02-04 10:00:00,46.0,36.0,29.91,North,-999,-999.0,-999.0,69,-99.99,,,-99.99,,2013-02-04 10:00:00,
2013-02-04 10:41:00,46.0,36.0,29.91,North,-999,-999.0,-999.0,69,-99.99,,,-99.99,,2013-02-04 10:41:00,
2013-02-04 10:51:00,46.0,36.0,29.91,North,-999,-999.0,-999.0,69,-99.99,,,-99.99,,2013-02-04 10:51:00,
2013-02-04 11:00:00,46.0,35.0,29.91,North,-999,-999.0,-999.0,65,-99.99,,,-99.99,,2013-02-04 11:00:00,
2013-02-04 11:41:00,46.0,35.0,29.91,North,-999,-999.0,-999.0,65,-99.99,,,-99.99,,2013-02-04 11:41:00,
2013-02-04 11:52:00,46.0,35.0,29.91,North,-999,-999.0,-999.0,65,-99.99,,,-99.99,,2013-02-04 11:52:00,
2013-02-04 12:00:00,47.0,35.0,29.90,North,-999,-999.0,-999.0,63,-99.99,,,-99.99,,2013-02-04 12:00:00,
2013-02-04 12:41:00,47.0,35.0,29.90,North,-999,-999.0,-999.0,63,-99.99,,,-99.99,,2013-02-04 12:41:00,
2013-02-04 12:52:00,47.0,35.0,29.90,North,-999,-999.0,-999.0,63,-99.99,,,-99.99,,2013-02-04 12:52:00,
2013-02-04 13:00:00,47.0,36.0,29.88,North,-999,-999.0,-999.0,63,-99.99,,,-99.99,,2013-02-04 13:00:00,
2013-02-04 13:41:00,47.0,36.0,29.88,North,-999,-999.0,-999.0,63,-99.99,,,-99.99,,2013-02-04 13:41:00,
2013-02-04 13:51:00,47.0,36.0,29.88,North,-999,-999.0,-999.0,63,-99.99,,,-99.99,,2013-02-04 13:51:00,
2013-02-04 14:00:00,46.0,38.0,29.87,North,-999,-999.0,-999.0,73,-99.99,,,-99.99,,2013-02-04 14:00:00,
2013-02-04 14:41:00,46.0,38.0,29.87,North,-999,-999.0,-999.0,73,-99.99,,,-99.99,,2013-02-04 14:41:00,
2013-02-04 14:52:00,46.0,38.0,29.87,North,-999,-999.0,-999.0,73,-99.99,,,-99.99,,2013-02-04 14:52:00,
2013-02-04 15:00:00,45.0,38.0,29.84,North,-999,-999.0,-999.0,73,-99.99,,,-99.99,,2013-02-04 15:00:00,
2013-02-04 15:42:00,45.0,38.0,29.84,North,-999,-999.0,-999.0,73,-99.99,,,-99.99,,2013-02-04 15:42:00,
2013-02-04 15:52:00,45.0,38.0,29.84,North,-999,-999.0,-999.0,73,-99.99,,,-99.99,,2013-02-04 15:52:00,
2013-02-04 16:00:00,45.0,38.0,29.82,North,-999,-999.0,-999.0,74,-99.99,,,-99.99,,2013-02-04 16:00:00,
2013-02-04 16:42:00,45.0,38.0,29.82,North,-999,-999.0,-999.0,74,-99.99,,,-99.99,,2013-02-04 16:42:00,
2013-02-04 16:51:00,45.0,38.0,29.82,North,-999,-999.0,-999.0,74,-99.99,,,-99.99,,2013-02-04 16:51:00,
2013-02-04 17:00:00,44.0,37.0,29.80,North,-999,-999.0,-999.0,76,-99.99,,,-99.99,,2013-02-04 17:00:00,
2013-02-04 17:41:00,44.0,37.0,29.80,North,-999,-999.0,-999.0,76,-99.99,,,-99.99,,2013-02-04 17:41:00,
2013-02-04 17:51:00,44.0,37.0,29.80,North,-999,-999.0,-999.0,76,-99.99,,,-99.99,,2013-02-04 17:51:00,
2013-02-04 18:00:00,43.0,36.0,29.77,North,-999,-999.0,-999.0,76,-99.99,,,-99.99,,2013-02-04 18:00:00,
2013-02-04 18:41:00,43.0,36.0,29.77,North,-999,-999.0,-999.0,76,-99.99,,,-99.99,,2013-02-04 18:41:00,
2013-02-04 18:52:00,43.0,36.0,29.77,North,-999,-999.0,-999.0,76,-99.99,,,-99.99,,2013-02-04 18:52:00,
2013-02-04 19:00:00,42.0,36.0,29.74,North,-999,-999.0,-999.0,78,-99.99,,,-99.99,,2013-02-04 19:00:00,
2013-02-04 19:41:00,42.0,36.0,29.74,North,-999,-999.0,-999.0,78,-99.99,,,-99.99,,2013-02-04 19:41:00,
2013-02-04 19:51:00,42.0,36.0,29.74,North,-999,-999.0,-999.0,78,-99.99,,,-99.99,,2013-02-04 19:51:00,
2013-02-04 20:00:00,39.0,34.0,29.75,North,-999,-999.0,-999.0,84,-99.99,,,-99.99,,2013-02-04 20:00:00,
2013-02-04 20:42:00,39.0,34.0,29.75,North,-999,-999.0,-999.0,84,-99.99,,,-99.99,,2013-02-04 20:42:00,
2013-02-04 20:52:00,39.0,34.0,29.75,North,-999,-999.0,-999.0,84,-99.99,,,-99.99,,2013-02-04 20:52:00,
2013-02-04 21:00:00,40.0,35.0,29.72,North,-999,-999.0,-999.0,82,-99.99,,,-99.99,,2013-02-04 21:00:00,
2013-02-04 21:42:00,40.0,35.0,29.72,North,-999,-999.0,-999.0,82,-99.99,,,-99.99,,2013-02-04 21:42:00,
2013-02-04 21:51:00,40.0,35.0,29.72,North,-999,-999.0,-999.0,82,-99.99,,,-99.99,,2013-02-04 21:51:00,
2013-02-04 22:00:00,38.0,35.0,29.70,North,-999,-999.0,-999.0,86,-99.99,,,-99.99,,2013-02-04 22:00:00,
2013-02-04 22:41:00,38.0,35.0,29.70,North,-999,-999.0,-999.0,86,-99.99,,,-99.99,,2013-02-04 22:41:00,
2013-02-04 22:51:00,38.0,35.0,29.70,North,-999,-999.0,-999.0,86,-99.99,,,-99.99,,2013-02-04 22:51:00,
2013-02-04 23:00:00,39.0,35.0,29.69,North,-999,-999.0,-999.0,83,-99.99,,,-99.99,,2013-02-04 23:00:00,
2013-02-04 23:41:00,39.0,35.0,29.69,North,-999,-999.0,-999.0,83,-99.99,,,-99.99,,2013-02-04 23:41:00,
2013-02-04 23:52:00,39.0,35.0,29.69,North,-999,-999.0,-999.0,83,-99.99,,,-99.99,,2013-02-04 23:52:00,